createdAt,value
2019-03-19T00:02:05.371Z,90.28
2019-03-19T00:04:34.735Z,89.93
2019-03-19T00:07:04.337Z,89.82
2019-03-19T00:09:34.277Z,89.88
2019-03-19T00:12:03.874Z,89.88
2019-03-19T00:14:33.540Z,90.03
2019-03-19T00:17:03.516Z,90.35
2019-03-19T00:19:32.906Z,90.64
2019-03-19T00:22:02.313Z,90.83
2019-03-19T00:24:31.978Z,90.88
2019-03-19T00:27:01.504Z,91.09
2019-03-19T00:29:49.980Z,91.30
2019-03-19T00:32:19.505Z,91.36
2019-03-19T00:34:49.165Z,91.38
2019-03-19T00:37:18.757Z,91.52
2019-03-19T00:39:48.383Z,91.72
2019-03-19T00:42:17.760Z,92.00
2019-03-19T00:44:47.406Z,92.63
2019-03-19T00:47:16.786Z,92.63
2019-03-19T00:49:46.438Z,92.42
2019-03-19T00:52:15.808Z,92.68
2019-03-19T00:54:45.498Z,92.79
2019-03-19T00:57:14.932Z,93.00
2019-03-19T00:59:44.879Z,93.06
2019-03-19T01:02:14.546Z,93.11
2019-03-19T01:04:43.898Z,93.15
2019-03-19T01:07:13.494Z,93.36
2019-03-19T01:09:42.875Z,93.38
2019-03-19T01:12:12.532Z,93.35
2019-03-19T01:14:41.889Z,93.34
2019-03-19T01:17:11.535Z,93.36
2019-03-19T01:19:40.911Z,93.33
2019-03-19T01:22:10.858Z,93.40
2019-03-19T01:24:40.836Z,93.63
2019-03-19T01:27:10.193Z,93.73
2019-03-19T01:29:39.883Z,93.81
2019-03-19T01:32:09.525Z,93.94
2019-03-19T01:34:38.899Z,93.95
2019-03-19T01:37:08.625Z,93.93
2019-03-19T01:39:38.270Z,93.99
2019-03-19T01:42:07.754Z,94.07
2019-03-19T01:44:37.372Z,94.10
2019-03-19T01:47:06.975Z,94.04
2019-03-19T01:49:36.877Z,94.06
2019-03-19T01:52:06.527Z,94.20
2019-03-19T01:54:35.988Z,94.29
2019-03-19T01:57:05.340Z,94.39
2019-03-19T01:59:34.859Z,94.39
2019-03-19T02:02:04.220Z,94.45
2019-03-19T02:04:33.898Z,94.48
2019-03-19T02:07:03.810Z,94.53
2019-03-19T02:09:33.516Z,94.59
2019-03-19T02:12:02.878Z,94.59
2019-03-19T02:14:32.249Z,94.59
2019-03-19T02:17:01.736Z,94.62
2019-03-19T02:19:31.104Z,94.51
2019-03-19T02:22:00.764Z,94.42
2019-03-19T02:24:30.762Z,94.34
2019-03-19T02:27:00.150Z,94.27
2019-03-19T02:29:29.789Z,94.40
2019-03-19T02:31:59.211Z,94.48
2019-03-19T02:34:28.852Z,94.59
2019-03-19T02:36:58.220Z,94.67
2019-03-19T02:39:27.876Z,94.83
2019-03-19T02:41:57.275Z,94.99
2019-03-19T02:44:26.897Z,95.00
2019-03-19T02:46:56.340Z,95.02
2019-03-19T02:49:26.328Z,95.06
2019-03-19T02:51:55.886Z,94.96
2019-03-19T02:54:25.364Z,95.01
2019-03-19T02:56:55.003Z,95.03
2019-03-19T02:59:25.690Z,94.99
2019-03-19T03:01:55.303Z,95.13
2019-03-19T03:04:25.279Z,95.34
2019-03-19T03:06:54.947Z,95.39
2019-03-19T03:09:25.554Z,95.45
2019-03-19T03:11:56.722Z,95.56
2019-03-19T03:14:46.329Z,95.99
2019-03-19T03:17:36.142Z,95.99
2019-03-19T03:20:24.850Z,96.00
2019-03-19T03:22:54.231Z,95.98
2019-03-19T03:25:23.574Z,95.97
2019-03-19T03:27:53.110Z,95.98
2019-03-19T03:33:25.730Z,95.74
2019-03-19T03:35:55.263Z,95.71
2019-03-19T03:38:25.502Z,95.73
2019-03-19T03:40:55.155Z,95.79
2019-03-19T03:43:25.471Z,95.86
2019-03-19T03:45:55.079Z,95.80
2019-03-19T03:48:25.392Z,95.75
2019-03-19T03:50:54.754Z,95.80
2019-03-19T03:53:25.542Z,95.75
2019-03-19T03:55:55.267Z,95.68
2019-03-19T03:58:25.569Z,95.56
2019-03-19T04:00:55.231Z,95.42
2019-03-19T04:03:25.492Z,95.28
2019-03-19T04:05:55.135Z,95.20
2019-03-19T04:08:25.529Z,95.10
2019-03-19T04:10:55.184Z,94.97
2019-03-19T04:13:25.488Z,94.86
2019-03-19T04:15:55.149Z,94.73
2019-03-19T04:18:25.584Z,94.57
2019-03-19T04:20:55.236Z,94.51
2019-03-19T04:26:21.334Z,94.51
2019-03-19T04:31:31.528Z,94.70
2019-03-19T04:34:01.170Z,94.87
2019-03-19T04:36:30.835Z,94.95
2019-03-19T04:39:00.444Z,94.92
2019-03-19T04:41:31.586Z,95.16
2019-03-19T04:44:01.253Z,95.21
2019-03-19T04:46:30.898Z,95.25
2019-03-19T04:49:19.642Z,95.52
2019-03-19T04:51:49.321Z,95.83
2019-03-19T04:54:18.684Z,95.99
2019-03-19T04:56:48.385Z,96.12
2019-03-19T04:59:17.735Z,96.11
2019-03-19T05:01:47.361Z,96.47
2019-03-19T05:04:16.727Z,96.65
2019-03-19T05:06:46.389Z,96.69
2019-03-19T05:09:15.760Z,96.75
2019-03-19T05:11:45.691Z,96.76
2019-03-19T05:14:34.981Z,96.57
2019-03-19T05:17:04.479Z,96.57
2019-03-19T05:19:33.855Z,97.07
2019-03-19T05:22:03.522Z,97.29
2019-03-19T05:24:32.886Z,97.48
2019-03-19T05:27:03.943Z,97.53
2019-03-19T05:29:33.755Z,97.58
2019-03-19T05:32:03.123Z,97.63
2019-03-19T05:34:33.055Z,97.71
2019-03-19T05:37:02.642Z,97.92
2019-03-19T05:39:32.012Z,98.00
2019-03-19T05:42:01.608Z,98.15
2019-03-19T05:44:31.283Z,98.25
2019-03-19T05:47:00.642Z,98.32
2019-03-19T05:49:30.018Z,98.36
2019-03-19T05:51:59.693Z,98.24
2019-03-19T05:54:29.048Z,98.10
2019-03-19T05:56:58.624Z,98.05
2019-03-19T05:59:28.324Z,97.96
2019-03-19T06:01:57.697Z,97.87
2019-03-19T06:04:27.339Z,97.82
2019-03-19T06:06:57.063Z,97.82
2019-03-19T06:09:26.761Z,97.87
2019-03-19T06:11:56.138Z,97.83
2019-03-19T06:14:26.401Z,97.92
2019-03-19T06:16:55.777Z,97.95
2019-03-19T06:19:26.039Z,98.25
2019-03-19T06:21:57.365Z,97.99
2019-03-19T06:24:27.023Z,98.03
2019-03-19T06:26:56.733Z,98.02
2019-03-19T06:29:26.392Z,97.97
2019-03-19T06:31:55.756Z,97.79
2019-03-19T06:34:25.999Z,97.55
2019-03-19T06:36:55.357Z,97.50
2019-03-19T06:39:26.184Z,97.02
2019-03-19T06:41:55.836Z,96.50
2019-03-19T06:44:26.299Z,96.22
2019-03-19T06:46:55.834Z,96.16
2019-03-19T06:49:26.077Z,96.04
2019-03-19T06:51:56.252Z,95.76
2019-03-19T06:54:26.887Z,95.24
2019-03-19T06:56:56.258Z,94.56
2019-03-19T06:59:32.039Z,93.70
2019-03-19T07:02:01.706Z,93.13
2019-03-19T07:04:31.371Z,90.96
2019-03-19T07:07:00.969Z,90.96
2019-03-19T07:09:30.319Z,90.60
2019-03-19T07:12:01.560Z,90.32
2019-03-19T07:14:31.346Z,90.48
2019-03-19T07:19:54.815Z,91.10
2019-03-19T07:22:24.190Z,89.99
2019-03-19T07:24:53.831Z,89.92
2019-03-19T07:27:23.211Z,90.16
2019-03-19T07:33:27.321Z,88.11
2019-03-19T07:35:57.034Z,88.11
2019-03-19T07:38:26.412Z,87.71
2019-03-19T07:40:56.006Z,87.91
2019-03-19T07:43:26.261Z,88.00
2019-03-19T07:45:55.629Z,87.54
2019-03-19T07:48:26.657Z,87.58
2019-03-19T07:50:56.045Z,87.62
2019-03-19T07:53:26.607Z,87.81
2019-03-19T07:55:56.016Z,87.54
2019-03-19T07:58:32.987Z,86.18
2019-03-19T08:01:16.681Z,84.43
2019-03-19T08:04:05.756Z,84.85
2019-03-19T08:06:35.399Z,84.85
2019-03-19T08:09:25.412Z,84.77
2019-03-19T08:11:55.074Z,84.77
2019-03-19T08:14:24.438Z,83.33
2019-03-19T08:16:54.012Z,82.55
2019-03-19T08:19:23.388Z,81.22
2019-03-19T08:21:53.315Z,81.07
2019-03-19T08:24:24.285Z,79.20
2019-03-19T08:26:53.658Z,78.84
2019-03-19T08:29:42.499Z,78.47
2019-03-19T08:32:12.110Z,79.10
2019-03-19T08:34:41.752Z,79.10
2019-03-19T08:37:11.225Z,78.77
2019-03-19T08:39:40.857Z,78.77
2019-03-19T08:42:10.228Z,78.04
2019-03-19T08:44:39.578Z,78.39
2019-03-19T08:47:09.191Z,77.57
2019-03-19T08:52:17.856Z,75.74
2019-03-19T08:54:47.326Z,74.53
2019-03-19T08:57:16.669Z,74.10
2019-03-19T08:59:46.176Z,73.23
2019-03-19T09:02:15.525Z,71.41
2019-03-19T09:04:45.208Z,71.07
2019-03-19T09:07:14.609Z,72.55
2019-03-19T09:13:18.304Z,71.25
2019-03-19T09:15:47.672Z,71.25
2019-03-19T09:18:17.038Z,71.78
2019-03-19T09:20:46.606Z,69.01
2019-03-19T09:23:15.973Z,69.48
2019-03-19T09:25:45.442Z,69.84
2019-03-19T09:28:14.806Z,69.86
2019-03-19T09:30:44.188Z,67.85
2019-03-19T09:33:13.639Z,68.29
2019-03-19T09:35:43.240Z,69.52
2019-03-19T09:38:12.615Z,67.21
2019-03-19T09:40:41.968Z,67.36
2019-03-19T09:43:11.525Z,67.10
2019-03-19T09:45:40.872Z,64.60
2019-03-19T09:48:10.250Z,64.26
2019-03-19T09:50:40.139Z,64.36
2019-03-19T09:53:09.643Z,65.57
2019-03-19T09:55:39.003Z,64.67
2019-03-19T09:58:08.378Z,63.98
2019-03-19T10:00:57.067Z,62.54
2019-03-19T10:03:26.446Z,63.86
2019-03-19T10:05:55.793Z,61.09
2019-03-19T10:08:25.169Z,59.53
2019-03-19T10:10:54.526Z,58.72
2019-03-19T10:13:23.894Z,61.29
2019-03-19T10:15:53.255Z,61.61
2019-03-19T10:18:22.630Z,62.59
2019-03-19T10:20:51.989Z,62.82
2019-03-19T10:23:21.353Z,63.29
2019-03-19T10:25:50.715Z,63.59
2019-03-19T10:28:27.828Z,63.63
2019-03-19T10:30:58.818Z,64.16
2019-03-19T10:33:28.473Z,65.31
2019-03-19T10:35:57.842Z,63.24
2019-03-19T10:38:27.216Z,58.63
2019-03-19T10:40:56.816Z,59.34
2019-03-19T10:43:26.191Z,59.20
2019-03-19T10:45:55.805Z,58.36
2019-03-19T10:48:25.156Z,60.38
2019-03-19T10:53:22.383Z,56.70
2019-03-19T10:55:53.351Z,53.22
2019-03-19T10:58:22.724Z,53.69
2019-03-19T11:00:52.096Z,53.22
2019-03-19T11:03:21.463Z,56.64
2019-03-19T11:05:50.829Z,54.50
2019-03-19T11:08:20.195Z,52.83
2019-03-19T11:10:49.564Z,54.17
2019-03-19T11:13:19.163Z,51.58
2019-03-19T11:15:48.536Z,53.14
2019-03-19T11:18:17.917Z,56.25
2019-03-19T11:20:47.548Z,57.86
2019-03-19T11:23:16.919Z,55.45
2019-03-19T11:25:54.190Z,53.99
2019-03-19T11:28:22.802Z,53.85
2019-03-19T11:30:52.151Z,54.39
2019-03-19T11:33:21.529Z,51.61
2019-03-19T11:35:50.883Z,53.74
2019-03-19T11:38:20.258Z,54.34
2019-03-19T11:40:49.611Z,52.46
2019-03-19T11:43:18.983Z,50.57
2019-03-19T11:45:48.327Z,51.19
2019-03-19T11:48:17.706Z,51.02
2019-03-19T11:50:47.048Z,49.20
2019-03-19T11:53:16.423Z,47.97
2019-03-19T11:55:45.778Z,50.40
2019-03-19T11:58:15.143Z,48.92
2019-03-19T12:01:03.647Z,48.69
2019-03-19T12:03:33.011Z,50.24
2019-03-19T12:06:02.645Z,50.04
2019-03-19T12:08:32.008Z,50.64
2019-03-19T12:11:01.371Z,49.50
2019-03-19T12:13:30.731Z,48.09
2019-03-19T12:16:00.101Z,47.85
2019-03-19T12:18:29.475Z,46.32
2019-03-19T12:20:59.141Z,45.82
2019-03-19T12:23:48.131Z,43.97
2019-03-19T12:26:17.494Z,43.93
2019-03-19T12:31:54.457Z,43.93
2019-03-19T12:34:23.815Z,42.60
2019-03-19T12:36:53.185Z,42.37
2019-03-19T12:39:22.550Z,44.81
2019-03-19T12:42:04.154Z,45.25
2019-03-19T12:44:33.521Z,46.87
2019-03-19T12:47:02.890Z,48.95
2019-03-19T12:49:32.245Z,50.20
2019-03-19T12:52:01.613Z,50.74
2019-03-19T12:54:30.962Z,49.89
2019-03-19T12:57:00.328Z,50.41
2019-03-19T12:59:29.682Z,51.26
2019-03-19T13:01:59.060Z,52.73
2019-03-19T13:04:28.420Z,50.62
2019-03-19T13:06:57.823Z,49.85
2019-03-19T13:09:27.158Z,49.09
2019-03-19T13:11:56.518Z,49.06
2019-03-19T13:14:25.899Z,48.40
2019-03-19T13:16:56.890Z,47.10
2019-03-19T13:19:26.263Z,46.19
2019-03-19T13:21:55.632Z,45.43
2019-03-19T13:24:24.999Z,44.86
2019-03-19T13:26:54.608Z,44.54
2019-03-19T13:29:23.958Z,44.67
2019-03-19T13:31:53.331Z,45.78
2019-03-19T13:34:24.301Z,45.40
2019-03-19T13:36:53.667Z,44.68
2019-03-19T13:39:23.036Z,46.02
2019-03-19T13:41:52.391Z,44.23
2019-03-19T13:44:22.067Z,43.00
2019-03-19T13:46:51.422Z,42.65
2019-03-19T13:49:20.790Z,42.89
2019-03-19T13:51:50.146Z,41.77
2019-03-19T13:54:19.834Z,42.63
2019-03-19T13:56:49.147Z,44.32
2019-03-19T13:59:18.527Z,45.19
2019-03-19T14:01:48.119Z,45.71
2019-03-19T14:04:17.500Z,45.39
2019-03-19T14:06:47.209Z,45.17
2019-03-19T14:09:16.609Z,45.88
2019-03-19T14:11:45.935Z,46.12
2019-03-19T14:14:15.303Z,47.12
2019-03-19T14:16:44.943Z,47.57
2019-03-19T14:19:14.304Z,47.70
2019-03-19T14:21:43.654Z,47.15
2019-03-19T14:24:13.025Z,48.05
2019-03-19T14:26:42.378Z,47.17
2019-03-19T14:29:11.745Z,47.26
2019-03-19T14:31:41.104Z,46.43
2019-03-19T14:34:10.450Z,45.00
2019-03-19T14:36:39.826Z,45.13
2019-03-19T14:39:10.796Z,44.09
2019-03-19T14:41:40.166Z,44.01
2019-03-19T14:44:09.530Z,43.76
2019-03-19T14:46:38.885Z,43.63
2019-03-19T14:49:08.260Z,43.22
2019-03-19T14:51:39.236Z,43.07
2019-03-19T14:54:10.557Z,43.49
2019-03-19T14:56:49.114Z,43.59
2019-03-19T14:59:18.478Z,44.73
2019-03-19T15:01:47.849Z,44.72
2019-03-19T15:04:17.220Z,44.20
2019-03-19T15:06:46.581Z,43.55
2019-03-19T15:09:15.954Z,44.55
2019-03-19T15:11:45.325Z,45.80
2019-03-19T15:14:14.682Z,45.84
2019-03-19T15:16:44.118Z,46.33
2019-03-19T15:19:13.485Z,44.04
2019-03-19T15:21:42.864Z,44.62
2019-03-19T15:24:12.223Z,45.69
2019-03-19T15:26:41.581Z,45.96
2019-03-19T15:29:12.562Z,45.89
2019-03-19T15:31:41.938Z,46.21
2019-03-19T15:34:11.288Z,45.63
2019-03-19T15:36:40.663Z,47.56
2019-03-19T15:39:11.646Z,46.95
2019-03-19T15:41:40.999Z,47.69
2019-03-19T15:44:10.374Z,46.89
2019-03-19T15:46:39.722Z,46.58
2019-03-19T15:49:09.456Z,46.21
2019-03-19T15:51:38.813Z,45.48
2019-03-19T15:54:08.182Z,46.05
2019-03-19T15:56:37.865Z,46.50
2019-03-19T15:59:07.245Z,46.04
2019-03-19T16:01:40.391Z,47.01
2019-03-19T16:04:13.193Z,47.59
2019-03-19T16:06:42.549Z,48.08
2019-03-19T16:09:13.531Z,48.34
2019-03-19T16:11:42.878Z,49.44
2019-03-19T16:14:12.618Z,48.62
2019-03-19T16:16:42.312Z,48.57
2019-03-19T16:19:11.691Z,48.33
2019-03-19T16:21:41.040Z,48.74
2019-03-19T16:24:10.412Z,49.05
2019-03-19T16:26:39.780Z,49.29
2019-03-19T16:29:09.144Z,49.89
2019-03-19T16:31:38.495Z,50.16
2019-03-19T16:34:07.875Z,50.48
2019-03-19T16:36:37.226Z,51.17
2019-03-19T16:39:46.631Z,51.10
2019-03-19T16:42:16.285Z,51.19
2019-03-19T16:44:45.650Z,51.69
2019-03-19T16:47:15.297Z,51.86
2019-03-19T16:49:44.666Z,52.06
2019-03-19T16:52:14.019Z,51.90
2019-03-19T16:54:43.387Z,51.75
2019-03-19T16:57:12.733Z,51.93
2019-03-19T16:59:43.730Z,51.96
2019-03-19T17:02:13.089Z,51.94
2019-03-19T17:04:42.445Z,52.01
2019-03-19T17:07:13.438Z,51.92
2019-03-19T17:09:44.747Z,51.77
2019-03-19T17:12:14.411Z,52.31
2019-03-19T17:14:44.097Z,52.60
2019-03-19T17:17:13.482Z,52.67
2019-03-19T17:19:43.137Z,52.89
2019-03-19T17:22:12.495Z,52.92
2019-03-19T17:25:01.512Z,53.38
2019-03-19T17:27:31.107Z,53.38
2019-03-19T17:30:02.117Z,53.30
2019-03-19T17:32:33.240Z,53.33
2019-03-19T17:35:02.613Z,53.37
2019-03-19T17:37:32.081Z,53.57
2019-03-19T17:42:55.371Z,54.06
2019-03-19T17:45:25.141Z,54.35
2019-03-19T17:47:54.814Z,54.63
2019-03-19T17:53:26.226Z,55.12
2019-03-19T17:55:55.601Z,55.25
2019-03-19T17:58:25.262Z,55.59
2019-03-19T18:03:34.187Z,56.37
2019-03-19T18:06:03.570Z,56.84
2019-03-19T18:08:33.224Z,58.15
2019-03-19T18:11:02.902Z,58.79
2019-03-19T18:13:32.265Z,58.89
2019-03-19T18:16:01.638Z,58.92
2019-03-19T18:18:31.539Z,58.94
2019-03-19T18:21:01.152Z,59.15
2019-03-19T18:23:30.507Z,59.43
2019-03-19T18:25:59.882Z,59.74
2019-03-19T18:28:29.551Z,60.29
2019-03-19T18:31:11.991Z,61.84
2019-03-19T18:33:41.641Z,61.84
2019-03-19T18:36:11.191Z,62.08
2019-03-19T18:38:40.714Z,62.08
2019-03-19T18:41:10.417Z,62.50
2019-03-19T18:43:40.937Z,62.50
2019-03-19T18:46:10.290Z,62.82
2019-03-19T18:48:40.646Z,63.17
2019-03-19T18:51:10.508Z,63.15
2019-03-19T18:53:40.626Z,62.88
2019-03-19T18:56:10.513Z,62.82
2019-03-19T18:58:40.743Z,62.73
2019-03-19T19:01:29.992Z,62.93
2019-03-19T19:03:59.359Z,62.93
2019-03-19T19:06:30.343Z,63.13
2019-03-19T19:08:59.716Z,63.12
2019-03-19T19:11:34.442Z,63.46
2019-03-19T19:14:03.805Z,63.64
2019-03-19T19:16:52.762Z,64.13
2019-03-19T19:19:22.386Z,64.13
2019-03-19T19:21:53.662Z,64.55
2019-03-19T19:24:23.319Z,64.87
2019-03-19T19:26:52.691Z,65.33
2019-03-19T19:29:35.180Z,66.02
2019-03-19T19:32:04.542Z,66.02
2019-03-19T19:34:33.907Z,66.26
2019-03-19T19:37:16.426Z,66.90
2019-03-19T19:39:46.445Z,66.90
2019-03-19T19:42:15.816Z,67.18
2019-03-19T19:44:45.471Z,67.72
2019-03-19T19:47:14.843Z,67.94
2019-03-19T19:49:44.664Z,68.10
2019-03-19T19:52:14.013Z,68.01
2019-03-19T19:54:45.003Z,68.17
2019-03-19T19:57:26.119Z,68.50
2019-03-19T19:59:55.689Z,68.60
2019-03-19T20:02:25.353Z,68.80
2019-03-19T20:05:02.916Z,68.95
2019-03-19T20:07:45.215Z,68.98
2019-03-19T20:13:16.936Z,69.70
2019-03-19T20:15:46.594Z,69.64
2019-03-19T20:18:15.948Z,69.96
2019-03-19T20:20:45.611Z,70.42
2019-03-19T20:23:14.978Z,70.55
2019-03-19T20:25:44.817Z,70.80
2019-03-19T20:28:14.214Z,70.74
2019-03-19T20:30:43.583Z,70.74
2019-03-19T20:33:24.211Z,70.89
2019-03-19T20:36:03.432Z,71.16
2019-03-19T20:38:32.812Z,71.24
2019-03-19T20:41:04.332Z,71.46
2019-03-19T20:43:33.699Z,71.80
2019-03-19T20:48:43.257Z,72.43
2019-03-19T20:51:12.606Z,72.72
2019-03-19T20:53:42.244Z,72.80
2019-03-19T20:56:11.680Z,72.83
2019-03-19T20:58:43.749Z,72.88
2019-03-19T21:01:17.681Z,72.86
2019-03-19T21:03:49.371Z,72.84
2019-03-19T21:06:18.774Z,72.83
2019-03-19T21:08:48.384Z,72.78
2019-03-19T21:11:17.805Z,72.84
2019-03-19T21:13:47.149Z,72.81
2019-03-19T21:16:16.672Z,72.80
2019-03-19T21:18:46.025Z,72.74
2019-03-19T21:21:27.768Z,72.25
2019-03-19T21:23:57.406Z,72.25
2019-03-19T21:26:26.806Z,72.38
2019-03-19T21:28:56.162Z,72.41
2019-03-19T21:31:26.069Z,72.62
2019-03-19T21:33:55.718Z,72.80
2019-03-19T21:36:25.100Z,73.05
2019-03-19T21:38:54.769Z,73.06
2019-03-19T21:41:24.122Z,73.19
2019-03-19T21:43:53.808Z,73.27
2019-03-19T21:46:23.152Z,73.34
2019-03-19T21:48:52.811Z,73.53
2019-03-19T21:51:22.171Z,73.55
2019-03-19T21:53:51.844Z,73.68
2019-03-19T21:56:21.208Z,74.06
2019-03-19T21:58:50.813Z,74.09
2019-03-19T22:01:21.778Z,74.59
2019-03-19T22:04:02.698Z,74.90
2019-03-19T22:06:32.959Z,75.17
2019-03-19T22:12:04.768Z,75.80
2019-03-19T22:14:34.128Z,75.96
2019-03-19T22:17:16.639Z,76.20
2019-03-19T22:19:46.086Z,76.20
2019-03-19T22:22:15.781Z,76.73
2019-03-19T22:24:45.199Z,76.72
2019-03-19T22:27:14.849Z,76.52
2019-03-19T22:29:44.482Z,76.47
2019-03-19T22:32:13.924Z,76.47
2019-03-19T22:34:43.291Z,76.19
2019-03-19T22:37:13.128Z,75.89
2019-03-19T22:42:31.224Z,75.48
2019-03-19T22:45:00.743Z,75.27
2019-03-19T22:47:31.988Z,75.23
2019-03-19T22:50:01.349Z,75.35
2019-03-19T22:52:30.974Z,75.41
2019-03-19T22:55:00.418Z,75.41
2019-03-19T22:57:29.857Z,75.29
2019-03-19T22:59:59.207Z,75.34
2019-03-19T23:02:28.943Z,75.18
2019-03-19T23:05:00.423Z,75.14
2019-03-19T23:07:29.993Z,75.14
2019-03-19T23:09:59.344Z,75.27
2019-03-19T23:12:28.848Z,75.30
2019-03-19T23:14:58.486Z,75.35
2019-03-19T23:17:28.005Z,75.31
2019-03-19T23:19:57.557Z,75.28
2019-03-19T23:22:33.903Z,75.23
2019-03-19T23:25:14.553Z,75.22
2019-03-19T23:27:44.187Z,75.41
2019-03-19T23:33:15.893Z,75.49
2019-03-19T23:35:45.290Z,75.64
2019-03-19T23:38:14.960Z,75.86
2019-03-19T23:40:44.322Z,76.12
2019-03-19T23:43:33.287Z,76.31
2019-03-19T23:46:02.937Z,76.58
2019-03-19T23:48:32.306Z,76.99
2019-03-19T23:51:01.888Z,77.09
2019-03-19T23:53:31.245Z,77.20
2019-03-19T23:56:01.202Z,77.46
2019-03-19T23:58:31.231Z,77.60
